Terminal Aerodrome Forecast
Issued by NWS

Home | Current Version | Previous Version | Text Only | Print | Product List | Glossary On
Versions: 1 2 3 4 5 6 7 8 9 10 11 12
000
FTUS46 KPDT 270500
TAFRDM
TAF
KRDM 270526Z 2706/2806 VRB05KT P6SM OVC050
     FM271100 VRB05KT 6SM -RA BR OVC040
     FM271400 31008KT 3SM -RA BR OVC025
     FM280200 32012KT 3SM -SN OVC020=

USA.gov is the U.S. government's official web portal to all federal, state and local government web resources and services.